Time;durP1;ratioP1;P1;durP2;ratioP2;P2;SDS_P1;SDS_P2;PMS_P1;PMS_P2;Temp;Humidity;BMP_temperature;BMP_pressure;BME280_temperature;BME280_humidity;BME280_pressure;Samples;Min_cycle;Max_cycle;Signal;HPM_P1;HPM_P2
2022/12/11 00:01:13;;;;;;;66.07;25.27;;;;;;;;;;5011773;28;20194;-73
2022/12/11 00:03:39;;;;;;;69.70;24.37;;;;;;;;;;5031839;28;20666;-74
2022/12/11 00:06:05;;;;;;;69.40;26.20;;;;;;;;;;5032582;28;20194;-73
2022/12/11 00:08:31;;;;;;;75.57;27.83;;;;;;;;;;5014984;28;20178;-73
2022/12/11 00:10:56;;;;;;;68.40;25.50;;;;;;;;;;5030851;28;20279;-73
2022/12/11 00:13:21;;;;;;;67.00;25.93;;;;;;;;;;5030105;28;20628;-74
2022/12/11 00:15:46;;;;;;;80.23;28.30;;;;;;;;;;5030628;28;20602;-73
2022/12/11 00:18:13;;;;;;;67.33;26.03;;;;;;;;;;5030353;28;20658;-73
2022/12/11 00:20:38;;;;;;;69.07;27.27;;;;;;;;;;5031566;28;20202;-74
2022/12/11 00:23:04;;;;;;;80.43;27.50;;;;;;;;;;5031101;28;20178;-73
2022/12/11 00:25:29;;;;;;;77.00;27.17;;;;;;;;;;5035877;28;20217;-73
2022/12/11 00:27:54;;;;;;;71.13;28.47;;;;;;;;;;5032145;28;20256;-73
2022/12/11 00:30:19;;;;;;;71.27;26.50;;;;;;;;;;5012398;28;20404;-72
2022/12/11 00:32:44;;;;;;;74.73;27.63;;;;;;;;;;5030831;28;20185;-72
2022/12/11 00:35:10;;;;;;;72.47;28.60;;;;;;;;;;5029542;28;20269;-74
2022/12/11 00:37:35;;;;;;;78.63;29.57;;;;;;;;;;5014390;28;20590;-72
2022/12/11 00:40:00;;;;;;;78.33;29.43;;;;;;;;;;5032229;28;20202;-72
2022/12/11 00:42:25;;;;;;;78.03;28.67;;;;;;;;;;5029945;28;20186;-72
2022/12/11 00:44:51;;;;;;;77.10;28.30;;;;;;;;;;5033301;28;20690;-72
2022/12/11 00:47:16;;;;;;;92.17;29.27;;;;;;;;;;5031142;28;20280;-72
2022/12/11 00:49:41;;;;;;;77.23;26.83;;;;;;;;;;5031214;28;20285;-74
2022/12/11 00:52:06;;;;;;;66.13;25.03;;;;;;;;;;5029780;28;20649;-72
2022/12/11 00:54:32;;;;;;;85.13;29.27;;;;;;;;;;5031336;28;20186;-72
2022/12/11 00:56:58;;;;;;;77.50;29.03;;;;;;;;;;5031182;28;20656;-73
2022/12/11 00:59:23;;;;;;;77.40;31.00;;;;;;;;;;5029433;28;20194;-73
2022/12/11 01:01:48;;;;;;;81.60;29.63;;;;;;;;;;5029498;28;20186;-73
2022/12/11 01:04:13;;;;;;;73.80;26.90;;;;;;;;;;5033737;28;20179;-73
2022/12/11 01:06:38;;;;;;;81.37;29.13;;;;;;;;;;5031279;28;20178;-72
2022/12/11 01:11:47;;;;;;;88.30;29.90;;;;;;;;;;5029102;28;20251;-73
2022/12/11 01:14:13;;;;;;;78.23;28.43;;;;;;;;;;5031282;28;20197;-73
2022/12/11 01:16:38;;;;;;;69.90;27.97;;;;;;;;;;5031058;28;20194;-73
2022/12/11 01:19:03;;;;;;;67.00;27.37;;;;;;;;;;5012511;28;20173;-73
2022/12/11 01:21:28;;;;;;;75.73;29.63;;;;;;;;;;5021655;28;20197;-73
2022/12/11 01:23:54;;;;;;;73.27;25.67;;;;;;;;;;5026125;28;20587;-73
2022/12/11 01:26:19;;;;;;;67.30;26.10;;;;;;;;;;5028252;28;20292;-74
2022/12/11 01:28:47;;;;;;;72.60;25.10;;;;;;;;;;5024617;28;20163;-74
2022/12/11 01:31:13;;;;;;;63.10;27.10;;;;;;;;;;5030606;28;20196;-74
2022/12/11 01:33:39;;;;;;;63.07;26.37;;;;;;;;;;5031640;28;20182;-74
2022/12/11 01:36:07;;;;;;;61.40;25.10;;;;;;;;;;5028787;28;20188;-74
2022/12/11 01:38:32;;;;;;;62.37;25.53;;;;;;;;;;5029645;28;20178;-72
2022/12/11 01:40:57;;;;;;;61.40;26.13;;;;;;;;;;5030259;28;20198;-72
2022/12/11 01:43:22;;;;;;;60.03;26.57;;;;;;;;;;5030956;28;20170;-72
2022/12/11 01:45:48;;;;;;;68.83;27.50;;;;;;;;;;5030611;28;20691;-72
2022/12/11 01:48:16;;;;;;;64.37;27.67;;;;;;;;;;5031013;28;20656;-72
2022/12/11 01:50:47;;;;;;;61.60;25.17;;;;;;;;;;5030829;28;20687;-74
2022/12/11 01:53:15;;;;;;;60.40;24.87;;;;;;;;;;5024448;28;20178;-74
2022/12/11 01:55:40;;;;;;;58.30;24.87;;;;;;;;;;5026781;28;20309;-73
2022/12/11 01:58:07;;;;;;;73.63;26.50;;;;;;;;;;5030928;28;20178;-73
2022/12/11 02:00:32;;;;;;;58.97;25.23;;;;;;;;;;5012679;28;20629;-73
2022/12/11 02:02:57;;;;;;;65.40;27.37;;;;;;;;;;5030356;28;20201;-73
2022/12/11 02:05:22;;;;;;;62.30;25.37;;;;;;;;;;5031285;28;20681;-73
2022/12/11 02:07:52;;;;;;;57.03;25.37;;;;;;;;;;5030927;28;20249;-73
2022/12/11 02:10:18;;;;;;;63.40;26.23;;;;;;;;;;5023112;28;20218;-73
2022/12/11 02:13:03;;;;;;;50.13;22.97;;;;;;;;;;5029487;28;20174;-73
2022/12/11 02:15:32;;;;;;;56.23;25.90;;;;;;;;;;5031397;28;20673;-73
2022/12/11 02:18:03;;;;;;;59.00;26.00;;;;;;;;;;5013010;28;20320;-73
2022/12/11 02:20:35;;;;;;;51.53;25.70;;;;;;;;;;5030555;28;20206;-73
2022/12/11 02:23:03;;;;;;;57.43;26.90;;;;;;;;;;5030758;28;20178;-73
2022/12/11 02:25:28;;;;;;;52.17;24.30;;;;;;;;;;5030202;28;20217;-73
2022/12/11 02:28:03;;;;;;;61.50;25.90;;;;;;;;;;5023544;28;20335;-72
2022/12/11 02:30:29;;;;;;;52.83;23.57;;;;;;;;;;5028759;28;20198;-73
2022/12/11 02:32:55;;;;;;;58.00;24.27;;;;;;;;;;5031443;28;20220;-73
2022/12/11 02:35:27;;;;;;;48.27;22.97;;;;;;;;;;5029209;28;20650;-73
2022/12/11 02:38:12;;;;;;;51.47;25.10;;;;;;;;;;5030469;28;20178;-73
2022/12/11 02:40:39;;;;;;;52.43;24.77;;;;;;;;;;5029373;28;20248;-72
2022/12/11 02:43:06;;;;;;;50.73;22.67;;;;;;;;;;5026417;28;20186;-73
2022/12/11 02:45:33;;;;;;;43.93;20.47;;;;;;;;;;5027400;28;20210;-73
2022/12/11 02:48:00;;;;;;;45.20;22.03;;;;;;;;;;5011244;28;20206;-73
2022/12/11 02:50:26;;;;;;;49.40;23.30;;;;;;;;;;5028976;28;20206;-73
2022/12/11 02:52:52;;;;;;;42.97;18.83;;;;;;;;;;5029960;28;20232;-72
2022/12/11 02:55:18;;;;;;;42.10;22.03;;;;;;;;;;5033432;28;20178;-73
2022/12/11 02:57:49;;;;;;;41.67;21.40;;;;;;;;;;5033445;28;20209;-73
2022/12/11 03:00:15;;;;;;;44.47;22.43;;;;;;;;;;5031202;28;20293;-73
2022/12/11 03:02:41;;;;;;;48.63;22.33;;;;;;;;;;5015852;28;20205;-73
2022/12/11 03:05:07;;;;;;;42.47;19.93;;;;;;;;;;5032872;28;20208;-74
2022/12/11 03:07:33;;;;;;;47.87;22.37;;;;;;;;;;5036749;28;20174;-73
2022/12/11 03:09:58;;;;;;;47.40;23.43;;;;;;;;;;5034617;28;20319;-72
2022/12/11 03:12:28;;;;;;;41.33;21.80;;;;;;;;;;5034606;28;20293;-71
2022/12/11 03:14:53;;;;;;;47.13;22.20;;;;;;;;;;5041292;28;20244;-74
2022/12/11 03:17:22;;;;;;;45.43;21.13;;;;;;;;;;5036808;28;20652;-72
2022/12/11 03:20:06;;;;;;;42.13;21.67;;;;;;;;;;5037676;28;20206;-72
2022/12/11 03:22:32;;;;;;;41.63;22.43;;;;;;;;;;5036134;28;20201;-72
2022/12/11 03:25:01;;;;;;;38.87;20.17;;;;;;;;;;5032644;28;20240;-72
2022/12/11 03:27:37;;;;;;;44.27;21.87;;;;;;;;;;5039611;28;20192;-72
2022/12/11 03:30:04;;;;;;;38.83;19.33;;;;;;;;;;5032091;28;20198;-72
2022/12/11 03:32:56;;;;;;;42.37;20.00;;;;;;;;;;5036536;28;20324;-74
2022/12/11 03:35:37;;;;;;;36.20;18.50;;;;;;;;;;5021133;28;20201;-72
2022/12/11 03:38:05;;;;;;;39.30;19.20;;;;;;;;;;5031386;28;20642;-72
2022/12/11 03:40:31;;;;;;;39.70;19.23;;;;;;;;;;5033505;28;20277;-72
2022/12/11 03:42:57;;;;;;;35.10;19.33;;;;;;;;;;5031549;28;20182;-72
2022/12/11 03:45:23;;;;;;;35.23;18.13;;;;;;;;;;5033522;28;20285;-72
2022/12/11 03:47:50;;;;;;;35.50;17.97;;;;;;;;;;5033560;28;20178;-74
2022/12/11 03:50:16;;;;;;;34.93;19.87;;;;;;;;;;5033305;28;20205;-73
2022/12/11 03:52:43;;;;;;;37.37;18.50;;;;;;;;;;5031769;28;20273;-72
2022/12/11 03:55:09;;;;;;;33.50;17.93;;;;;;;;;;5033457;28;20189;-73
2022/12/11 03:57:35;;;;;;;33.43;17.43;;;;;;;;;;5013587;28;20182;-73
2022/12/11 04:00:03;;;;;;;37.13;18.53;;;;;;;;;;5033721;28;20233;-72
2022/12/11 04:02:29;;;;;;;30.43;17.77;;;;;;;;;;5032375;28;20247;-73
2022/12/11 04:04:54;;;;;;;38.73;19.37;;;;;;;;;;5033366;28;20236;-73
2022/12/11 04:07:19;;;;;;;34.93;19.23;;;;;;;;;;5032477;28;20640;-73
2022/12/11 04:09:47;;;;;;;35.10;18.47;;;;;;;;;;5033277;28;20218;-72
2022/12/11 04:12:12;;;;;;;34.53;18.00;;;;;;;;;;5032212;28;20182;-73
2022/12/11 04:25:33;;;;;;;33.83;16.93;;;;;;;;;;5033033;28;20247;-73
2022/12/11 04:27:59;;;;;;;30.20;15.73;;;;;;;;;;5033097;28;20603;-73
2022/12/11 04:30:24;;;;;;;32.17;17.23;;;;;;;;;;5029233;28;20201;-73
2022/12/11 04:32:50;;;;;;;28.13;15.60;;;;;;;;;;5032017;28;20651;-72
2022/12/11 04:35:16;;;;;;;30.50;16.47;;;;;;;;;;5032887;28;20700;-72
2022/12/11 04:37:41;;;;;;;29.00;16.77;;;;;;;;;;5029194;28;20253;-72
2022/12/11 04:40:08;;;;;;;34.17;16.83;;;;;;;;;;5032500;28;20297;-72
2022/12/11 04:42:33;;;;;;;32.97;16.60;;;;;;;;;;5030110;28;20538;-72
2022/12/11 04:44:58;;;;;;;31.33;16.90;;;;;;;;;;5033100;28;20213;-72
2022/12/11 04:47:24;;;;;;;36.10;17.20;;;;;;;;;;5032119;28;20189;-72
2022/12/11 04:49:49;;;;;;;37.63;17.73;;;;;;;;;;5025691;28;20194;-73
2022/12/11 04:52:14;;;;;;;29.70;16.43;;;;;;;;;;5027954;28;20179;-73
2022/12/11 04:54:39;;;;;;;28.53;16.50;;;;;;;;;;5030569;28;20171;-73
2022/12/11 04:57:05;;;;;;;29.63;16.20;;;;;;;;;;5031643;28;20288;-73
2022/12/11 04:59:31;;;;;;;33.33;16.80;;;;;;;;;;5014321;28;20556;-73
2022/12/11 05:01:56;;;;;;;30.23;16.13;;;;;;;;;;5032021;28;20182;-73
2022/12/11 05:04:21;;;;;;;29.97;15.53;;;;;;;;;;5024323;28;20171;-73
2022/12/11 05:06:47;;;;;;;27.67;15.13;;;;;;;;;;5031471;28;20174;-73
2022/12/11 05:09:13;;;;;;;31.10;17.23;;;;;;;;;;5031846;28;20261;-72
2022/12/11 05:11:38;;;;;;;31.13;16.07;;;;;;;;;;5031625;28;20347;-73
2022/12/11 05:14:03;;;;;;;32.67;18.23;;;;;;;;;;5031653;28;20170;-72
2022/12/11 05:16:29;;;;;;;27.50;15.63;;;;;;;;;;5031486;28;20201;-72
2022/12/11 05:18:54;;;;;;;30.43;15.87;;;;;;;;;;5032878;28;20188;-73
2022/12/11 05:21:19;;;;;;;27.57;14.77;;;;;;;;;;5030358;28;20194;-73
2022/12/11 05:23:44;;;;;;;32.10;15.80;;;;;;;;;;5032441;28;20605;-73
2022/12/11 05:26:11;;;;;;;34.20;15.87;;;;;;;;;;5031156;28;20664;-72
2022/12/11 05:28:37;;;;;;;36.37;18.20;;;;;;;;;;5032011;28;20704;-73
2022/12/11 05:31:07;;;;;;;35.47;18.27;;;;;;;;;;5036603;28;20636;-72
2022/12/11 05:33:33;;;;;;;35.97;18.47;;;;;;;;;;5035125;28;20204;-73
2022/12/11 05:35:58;;;;;;;30.97;17.33;;;;;;;;;;5031578;28;20644;-73
2022/12/11 05:38:23;;;;;;;31.93;16.53;;;;;;;;;;5035720;28;20277;-73
2022/12/11 05:40:58;;;;;;;33.17;16.53;;;;;;;;;;5031694;28;20277;-73
2022/12/11 05:43:24;;;;;;;34.77;18.20;;;;;;;;;;5034498;28;20190;-73
2022/12/11 05:45:50;;;;;;;30.23;16.77;;;;;;;;;;5029899;28;20225;-74
2022/12/11 05:48:15;;;;;;;32.70;16.97;;;;;;;;;;5033455;28;20257;-73
2022/12/11 05:50:40;;;;;;;34.37;16.73;;;;;;;;;;5029586;28;20248;-73
2022/12/11 05:53:05;;;;;;;29.73;16.37;;;;;;;;;;5031695;28;20170;-73
2022/12/11 05:55:33;;;;;;;32.20;16.93;;;;;;;;;;5032697;28;20179;-72
2022/12/11 05:57:58;;;;;;;32.37;17.27;;;;;;;;;;5031328;28;20218;-72
2022/12/11 06:00:23;;;;;;;32.17;16.33;;;;;;;;;;5033148;28;20226;-73
2022/12/11 06:02:48;;;;;;;31.70;16.50;;;;;;;;;;5032742;28;20174;-72
2022/12/11 06:05:14;;;;;;;31.67;15.83;;;;;;;;;;5028128;28;20672;-73
2022/12/11 06:07:39;;;;;;;30.27;16.40;;;;;;;;;;5031284;28;20179;-74
2022/12/11 06:10:05;;;;;;;31.03;16.87;;;;;;;;;;5033798;28;20264;-73
2022/12/11 06:12:30;;;;;;;30.10;16.17;;;;;;;;;;5032347;28;20547;-73
2022/12/11 06:14:56;;;;;;;30.97;16.40;;;;;;;;;;5031550;28;20568;-73
2022/12/11 06:17:21;;;;;;;34.37;16.87;;;;;;;;;;5031904;28;20182;-73
2022/12/11 06:19:46;;;;;;;32.73;16.63;;;;;;;;;;5031771;28;20687;-72
2022/12/11 06:22:11;;;;;;;29.80;16.27;;;;;;;;;;5028386;28;20674;-73
2022/12/11 06:24:36;;;;;;;34.53;18.03;;;;;;;;;;5032812;28;20188;-72
2022/12/11 06:27:02;;;;;;;33.77;17.80;;;;;;;;;;5030926;28;20175;-72
2022/12/11 06:29:27;;;;;;;36.97;17.10;;;;;;;;;;5038653;28;20175;-74
2022/12/11 06:31:52;;;;;;;34.47;18.53;;;;;;;;;;5034449;28;20205;-72
2022/12/11 06:34:17;;;;;;;35.13;17.97;;;;;;;;;;5034280;28;20182;-72
2022/12/11 06:36:42;;;;;;;34.43;17.83;;;;;;;;;;5035403;28;20237;-72
2022/12/11 06:39:08;;;;;;;36.60;18.67;;;;;;;;;;5036404;28;20174;-72
2022/12/11 06:41:33;;;;;;;33.60;16.97;;;;;;;;;;5035388;28;20282;-73
2022/12/11 06:43:58;;;;;;;34.20;17.97;;;;;;;;;;5020547;28;20272;-72
2022/12/11 06:46:23;;;;;;;33.67;16.50;;;;;;;;;;5037222;28;20194;-75
2022/12/11 06:48:49;;;;;;;31.43;16.10;;;;;;;;;;5032309;28;20671;-72
2022/12/11 06:51:15;;;;;;;32.90;15.13;;;;;;;;;;5031042;28;20199;-72
2022/12/11 06:53:41;;;;;;;32.47;17.67;;;;;;;;;;5039291;28;20170;-73
2022/12/11 06:56:09;;;;;;;28.50;15.07;;;;;;;;;;5035120;28;20181;-73
2022/12/11 06:58:35;;;;;;;34.17;15.60;;;;;;;;;;5014478;28;20669;-73
2022/12/11 07:01:00;;;;;;;33.30;17.07;;;;;;;;;;5031670;28;20268;-73
2022/12/11 07:03:26;;;;;;;28.73;15.13;;;;;;;;;;5035725;28;20319;-73
2022/12/11 07:05:51;;;;;;;28.17;13.63;;;;;;;;;;5033032;28;20205;-73
2022/12/11 07:08:17;;;;;;;29.37;15.60;;;;;;;;;;5038860;28;20177;-72
2022/12/11 07:10:42;;;;;;;30.30;14.43;;;;;;;;;;5033824;28;20280;-71
2022/12/11 07:13:07;;;;;;;30.13;15.00;;;;;;;;;;5036852;28;20181;-72
2022/12/11 07:15:32;;;;;;;32.03;15.87;;;;;;;;;;5033238;28;20197;-72
2022/12/11 07:17:57;;;;;;;29.10;14.97;;;;;;;;;;5033614;28;20181;-72
2022/12/11 07:20:23;;;;;;;31.77;15.47;;;;;;;;;;5033416;28;20210;-72
2022/12/11 07:22:48;;;;;;;34.47;16.23;;;;;;;;;;5032019;28;20179;-72
2022/12/11 07:25:13;;;;;;;27.00;15.07;;;;;;;;;;5034189;28;20205;-72
2022/12/11 07:27:40;;;;;;;32.37;17.53;;;;;;;;;;5034070;28;20178;-72
2022/12/11 07:30:05;;;;;;;33.20;16.83;;;;;;;;;;5031436;28;20202;-72
2022/12/11 07:32:31;;;;;;;32.27;16.87;;;;;;;;;;5032417;28;20178;-72
2022/12/11 07:34:56;;;;;;;31.33;15.53;;;;;;;;;;5035454;28;20182;-72
2022/12/11 07:37:21;;;;;;;33.23;17.13;;;;;;;;;;5035847;28;20182;-72
2022/12/11 07:39:47;;;;;;;28.43;15.27;;;;;;;;;;5035156;28;20214;-72
2022/12/11 07:42:13;;;;;;;36.00;18.37;;;;;;;;;;5034670;28;20186;-72
2022/12/11 07:44:38;;;;;;;32.57;15.90;;;;;;;;;;5027569;28;20201;-73
2022/12/11 07:47:03;;;;;;;34.23;16.30;;;;;;;;;;5037450;28;20584;-73
2022/12/11 07:49:29;;;;;;;29.90;15.67;;;;;;;;;;5031773;28;20182;-73
2022/12/11 07:51:54;;;;;;;32.40;17.20;;;;;;;;;;5032887;28;20198;-72
2022/12/11 07:54:19;;;;;;;29.00;14.90;;;;;;;;;;5015882;28;20171;-72
2022/12/11 07:56:45;;;;;;;27.83;15.73;;;;;;;;;;5033736;28;20189;-73
2022/12/11 07:59:11;;;;;;;30.17;15.77;;;;;;;;;;5025897;28;20181;-72
2022/12/11 08:01:37;;;;;;;29.00;15.30;;;;;;;;;;5034788;28;20194;-73
2022/12/11 08:04:03;;;;;;;26.20;16.03;;;;;;;;;;5033532;28;20174;-73
2022/12/11 08:06:29;;;;;;;30.63;16.63;;;;;;;;;;5033977;28;20695;-74
2022/12/11 08:08:55;;;;;;;28.43;15.13;;;;;;;;;;5033254;28;20167;-75
2022/12/11 08:11:21;;;;;;;28.87;16.10;;;;;;;;;;5031136;28;20228;-74
2022/12/11 08:13:46;;;;;;;28.90;17.03;;;;;;;;;;5033713;28;20252;-74
2022/12/11 08:16:13;;;;;;;32.10;17.13;;;;;;;;;;5034084;28;20173;-74
2022/12/11 08:18:38;;;;;;;30.10;15.80;;;;;;;;;;5033031;28;20662;-73
2022/12/11 08:21:07;;;;;;;28.60;15.43;;;;;;;;;;5032849;28;20272;-74
2022/12/11 08:23:33;;;;;;;28.47;15.93;;;;;;;;;;5033148;28;20183;-74
2022/12/11 08:25:58;;;;;;;33.13;17.27;;;;;;;;;;5032409;28;20221;-74
2022/12/11 08:28:23;;;;;;;29.93;17.40;;;;;;;;;;5033032;28;20173;-74
2022/12/11 08:30:48;;;;;;;30.57;16.63;;;;;;;;;;5032283;28;20196;-74
2022/12/11 08:33:13;;;;;;;33.20;18.13;;;;;;;;;;5032985;28;20542;-74
2022/12/11 08:35:39;;;;;;;29.03;15.83;;;;;;;;;;5033051;28;20273;-74
2022/12/11 08:38:05;;;;;;;29.30;17.53;;;;;;;;;;5015261;28;20541;-73
2022/12/11 08:40:30;;;;;;;31.43;16.47;;;;;;;;;;5029657;28;20285;-74
2022/12/11 08:42:55;;;;;;;31.93;16.87;;;;;;;;;;5032344;28;20178;-74
2022/12/11 08:45:20;;;;;;;34.17;19.03;;;;;;;;;;5032472;28;20248;-74
2022/12/11 08:47:45;;;;;;;31.17;17.53;;;;;;;;;;5030496;28;20170;-74
2022/12/11 08:50:11;;;;;;;30.60;17.13;;;;;;;;;;5030748;28;20685;-74
2022/12/11 08:52:36;;;;;;;30.40;18.07;;;;;;;;;;5030543;28;20562;-74
2022/12/11 08:55:01;;;;;;;30.07;16.67;;;;;;;;;;5028817;28;20171;-73
2022/12/11 08:57:27;;;;;;;31.03;17.63;;;;;;;;;;5012470;28;20187;-73
2022/12/11 08:59:52;;;;;;;32.03;16.83;;;;;;;;;;5032935;28;20700;-73
2022/12/11 09:02:17;;;;;;;29.63;16.27;;;;;;;;;;5026951;28;20181;-74
2022/12/11 09:04:42;;;;;;;29.07;17.50;;;;;;;;;;5032741;28;20177;-73
2022/12/11 09:07:08;;;;;;;34.47;17.83;;;;;;;;;;5032428;28;20377;-73
2022/12/11 09:09:33;;;;;;;33.17;17.77;;;;;;;;;;5029977;28;20186;-73
2022/12/11 09:12:04;;;;;;;32.20;18.87;;;;;;;;;;5064549;28;20551;-73
2022/12/11 09:14:30;;;;;;;35.67;19.13;;;;;;;;;;5064534;28;20194;-73
2022/12/11 09:16:55;;;;;;;31.97;16.73;;;;;;;;;;5068219;28;20185;-74
2022/12/11 09:19:20;;;;;;;32.80;17.87;;;;;;;;;;5066022;28;20181;-72
2022/12/11 09:21:45;;;;;;;34.50;18.60;;;;;;;;;;5065675;28;20228;-72
2022/12/11 09:24:11;;;;;;;29.80;17.53;;;;;;;;;;5072774;22;20229;-79
2022/12/11 09:26:37;;;;;;;33.33;18.83;;;;;;;;;;5056706;28;20177;-79
2022/12/11 09:29:03;;;;;;;31.93;17.53;;;;;;;;;;5053113;28;20247;-79
2022/12/11 09:31:30;;;;;;;29.63;17.33;;;;;;;;;;5047808;28;20205;-79
2022/12/11 09:33:57;;;;;;;31.33;18.77;;;;;;;;;;5042023;28;20202;-79
2022/12/11 09:36:22;;;;;;;29.83;17.93;;;;;;;;;;5048090;28;20640;-79
2022/12/11 09:38:47;;;;;;;33.77;18.23;;;;;;;;;;5056148;28;20178;-77
2022/12/11 09:41:22;;;;;;;33.73;18.30;;;;;;;;;;5052871;28;20228;-79
2022/12/11 09:43:50;;;;;;;32.57;17.37;;;;;;;;;;5042587;28;20594;-79
2022/12/11 09:46:16;;;;;;;29.60;16.33;;;;;;;;;;5048728;28;20239;-79
2022/12/11 09:48:43;;;;;;;25.27;14.93;;;;;;;;;;5049929;28;20248;-79
2022/12/11 09:51:20;;;;;;;28.37;15.70;;;;;;;;;;5045928;28;20296;-79
2022/12/11 09:53:49;;;;;;;28.40;15.73;;;;;;;;;;5049577;28;20197;-79
2022/12/11 09:56:17;;;;;;;28.87;16.33;;;;;;;;;;5048087;28;20209;-79
2022/12/11 09:58:45;;;;;;;28.77;16.73;;;;;;;;;;5049410;28;20223;-78
2022/12/11 10:01:22;;;;;;;27.27;15.60;;;;;;;;;;5048187;28;20205;-78
2022/12/11 10:03:55;;;;;;;29.43;17.90;;;;;;;;;;5048076;28;20578;-79
2022/12/11 10:06:21;;;;;;;29.17;15.47;;;;;;;;;;5049596;28;20186;-78
2022/12/11 10:09:04;;;;;;;27.27;15.73;;;;;;;;;;5058950;28;20384;-79
2022/12/11 10:11:53;;;;;;;26.77;15.63;;;;;;;;;;5039654;28;20273;-78
2022/12/11 10:14:31;;;;;;;24.80;14.43;;;;;;;;;;5048807;28;20225;-78
2022/12/11 10:17:11;;;;;;;25.83;14.13;;;;;;;;;;5046796;28;20181;-78
2022/12/11 10:19:36;;;;;;;27.63;13.90;;;;;;;;;;5058948;28;20263;-79
2022/12/11 10:22:02;;;;;;;24.97;13.77;;;;;;;;;;5043638;28;20198;-78
2022/12/11 10:24:35;;;;;;;23.93;14.30;;;;;;;;;;5046373;28;20340;-78
2022/12/11 10:27:11;;;;;;;23.63;13.57;;;;;;;;;;5038855;28;20694;-78
2022/12/11 10:29:36;;;;;;;23.07;12.70;;;;;;;;;;5036969;28;20192;-78
2022/12/11 10:32:02;;;;;;;23.13;13.93;;;;;;;;;;5033963;28;20699;-78
2022/12/11 10:34:30;;;;;;;24.37;14.20;;;;;;;;;;5040842;28;20206;-78
2022/12/11 10:36:55;;;;;;;22.47;12.20;;;;;;;;;;5048648;28;20173;-78
2022/12/11 10:39:21;;;;;;;24.07;13.23;;;;;;;;;;5036714;28;20730;-79
2022/12/11 10:41:48;;;;;;;22.73;12.93;;;;;;;;;;5040782;28;20186;-78
2022/12/11 10:44:33;;;;;;;24.87;12.50;;;;;;;;;;5036619;28;20253;-78
2022/12/11 10:47:01;;;;;;;20.43;11.40;;;;;;;;;;5027218;28;20198;-78
2022/12/11 10:49:29;;;;;;;22.07;12.00;;;;;;;;;;5037695;28;20663;-78
2022/12/11 10:51:54;;;;;;;20.40;11.90;;;;;;;;;;5043417;28;20236;-78
2022/12/11 10:54:36;;;;;;;20.57;11.93;;;;;;;;;;5040738;28;20274;-78
2022/12/11 10:57:02;;;;;;;23.53;11.97;;;;;;;;;;5032180;28;20248;-78
2022/12/11 10:59:39;;;;;;;22.10;12.53;;;;;;;;;;5049370;28;20701;-77
2022/12/11 11:02:05;;;;;;;23.90;13.47;;;;;;;;;;5043574;28;20272;-78
2022/12/11 11:04:34;;;;;;;25.83;13.73;;;;;;;;;;5032573;28;20206;-78
2022/12/11 11:07:00;;;;;;;21.70;12.93;;;;;;;;;;5040626;28;20190;-78
2022/12/11 11:09:34;;;;;;;22.80;12.00;;;;;;;;;;5038820;28;20265;-78
2022/12/11 11:12:00;;;;;;;24.77;13.37;;;;;;;;;;5035559;28;20206;-78
2022/12/11 11:14:25;;;;;;;25.07;13.40;;;;;;;;;;5030589;28;20206;-78
2022/12/11 11:16:51;;;;;;;21.73;12.43;;;;;;;;;;5036216;28;20668;-79
2022/12/11 11:19:22;;;;;;;20.67;12.67;;;;;;;;;;5037830;28;20648;-78
2022/12/11 11:21:52;;;;;;;22.40;13.67;;;;;;;;;;5035475;28;20714;-78
2022/12/11 11:24:29;;;;;;;24.77;12.40;;;;;;;;;;5037132;28;20697;-78
2022/12/11 11:26:54;;;;;;;25.77;14.60;;;;;;;;;;5033476;28;20220;-78
2022/12/11 11:29:46;;;;;;;25.27;13.93;;;;;;;;;;5033785;28;20660;-78
2022/12/11 11:32:14;;;;;;;25.20;13.43;;;;;;;;;;5026959;28;20794;-78
2022/12/11 11:34:39;;;;;;;24.50;14.83;;;;;;;;;;5035126;28;20544;-78
2022/12/11 11:37:04;;;;;;;26.27;15.13;;;;;;;;;;5035074;28;20269;-78
2022/12/11 11:39:32;;;;;;;27.37;15.43;;;;;;;;;;5031888;28;20270;-78
2022/12/11 11:42:06;;;;;;;26.67;14.20;;;;;;;;;;5033304;28;20244;-78
2022/12/11 11:44:35;;;;;;;27.50;14.90;;;;;;;;;;5030103;28;20259;-78
2022/12/11 11:47:13;;;;;;;28.40;13.57;;;;;;;;;;5038663;28;20554;-78
2022/12/11 11:49:57;;;;;;;27.47;14.03;;;;;;;;;;5033418;28;20178;-78
2022/12/11 11:52:24;;;;;;;28.33;14.23;;;;;;;;;;5032856;28;20659;-78
2022/12/11 11:54:52;;;;;;;30.53;14.33;;;;;;;;;;5029789;28;20214;-78
2022/12/11 11:57:25;;;;;;;27.40;14.80;;;;;;;;;;5033966;28;20185;-78
2022/12/11 12:00:08;;;;;;;29.50;15.40;;;;;;;;;;5026169;28;20256;-78
2022/12/11 12:02:33;;;;;;;28.77;15.80;;;;;;;;;;5029656;28;20656;-78
2022/12/11 12:04:58;;;;;;;33.73;15.50;;;;;;;;;;5035672;28;20182;-78
2022/12/11 12:07:38;;;;;;;26.57;14.40;;;;;;;;;;5038484;28;20190;-78
2022/12/11 12:10:13;;;;;;;35.83;16.07;;;;;;;;;;5039062;28;20206;-78
2022/12/11 12:12:38;;;;;;;26.97;14.17;;;;;;;;;;5032144;28;20184;-78
2022/12/11 12:15:13;;;;;;;35.10;16.17;;;;;;;;;;5033349;28;20257;-79
2022/12/11 12:17:38;;;;;;;27.93;14.73;;;;;;;;;;5032770;28;20166;-77
2022/12/11 12:20:03;;;;;;;28.23;14.93;;;;;;;;;;5031206;28;20275;-78
2022/12/11 12:22:43;;;;;;;34.53;16.20;;;;;;;;;;5029854;28;20719;-77
2022/12/11 12:25:24;;;;;;;30.87;15.47;;;;;;;;;;5031061;28;20556;-77
2022/12/11 12:27:49;;;;;;;30.77;15.37;;;;;;;;;;5031535;28;20179;-77
2022/12/11 12:30:15;;;;;;;35.33;15.53;;;;;;;;;;5032727;28;20205;-77
2022/12/11 12:33:03;;;;;;;35.90;17.17;;;;;;;;;;5028428;28;20174;-77
2022/12/11 12:35:28;;;;;;;34.37;16.97;;;;;;;;;;5030181;28;20336;-77
2022/12/11 12:38:02;;;;;;;32.27;16.37;;;;;;;;;;5034686;28;20711;-77
2022/12/11 12:40:46;;;;;;;31.43;16.30;;;;;;;;;;5031913;28;20244;-77
2022/12/11 12:43:11;;;;;;;35.23;17.67;;;;;;;;;;5029981;28;20252;-77
2022/12/11 12:45:48;;;;;;;33.13;16.50;;;;;;;;;;5034383;28;20181;-77
2022/12/11 12:48:13;;;;;;;35.53;16.13;;;;;;;;;;5030500;28;20204;-77
2022/12/11 12:50:43;;;;;;;39.17;17.50;;;;;;;;;;5031477;28;20202;-77
2022/12/11 12:53:14;;;;;;;39.60;16.30;;;;;;;;;;5030515;28;20222;-77
2022/12/11 12:55:40;;;;;;;31.30;16.20;;;;;;;;;;5031212;28;20185;-77
2022/12/11 12:58:06;;;;;;;34.97;17.03;;;;;;;;;;5031230;28;20186;-77
2022/12/11 13:00:37;;;;;;;40.27;17.57;;;;;;;;;;5033677;28;20190;-77
2022/12/11 13:03:13;;;;;;;35.90;17.70;;;;;;;;;;5020779;28;20213;-77
2022/12/11 13:05:40;;;;;;;32.40;16.53;;;;;;;;;;5027488;28;20636;-77
2022/12/11 13:08:06;;;;;;;33.47;17.10;;;;;;;;;;5029699;28;20186;-76
2022/12/11 13:10:33;;;;;;;34.20;17.17;;;;;;;;;;5031540;28;20198;-77
2022/12/11 13:12:59;;;;;;;36.33;17.47;;;;;;;;;;5029339;28;20210;-78
2022/12/11 13:15:24;;;;;;;29.87;16.27;;;;;;;;;;5033049;28;20263;-78
2022/12/11 13:17:50;;;;;;;34.70;19.23;;;;;;;;;;5034030;28;20174;-78
2022/12/11 13:20:20;;;;;;;33.67;16.90;;;;;;;;;;5033688;28;20190;-77
2022/12/11 13:23:06;;;;;;;35.83;17.63;;;;;;;;;;5018512;28;20190;-77
2022/12/11 13:25:43;;;;;;;33.97;16.10;;;;;;;;;;5029583;28;20186;-77
2022/12/11 13:28:29;;;;;;;34.37;17.87;;;;;;;;;;5030595;28;20232;-78
2022/12/11 13:30:57;;;;;;;34.37;17.27;;;;;;;;;;5029433;28;20264;-77
2022/12/11 13:33:23;;;;;;;32.03;16.17;;;;;;;;;;5042633;28;20197;-78
2022/12/11 13:36:00;;;;;;;37.30;16.93;;;;;;;;;;5031316;28;20614;-78
2022/12/11 13:38:26;;;;;;;31.80;16.00;;;;;;;;;;5029487;28;20525;-77
2022/12/11 13:40:53;;;;;;;36.90;17.40;;;;;;;;;;5032218;28;20586;-77
2022/12/11 13:43:21;;;;;;;37.50;17.43;;;;;;;;;;5039329;28;20214;-78
2022/12/11 13:45:50;;;;;;;34.30;17.37;;;;;;;;;;5016642;28;20182;-77
2022/12/11 13:48:18;;;;;;;34.37;16.10;;;;;;;;;;5029032;28;20179;-77
2022/12/11 13:50:45;;;;;;;38.73;18.33;;;;;;;;;;5026468;28;20198;-77
2022/12/11 13:53:14;;;;;;;37.20;18.40;;;;;;;;;;5033941;28;20224;-77
2022/12/11 13:55:39;;;;;;;32.13;16.50;;;;;;;;;;5032430;28;20547;-77
2022/12/11 13:58:14;;;;;;;28.80;15.17;;;;;;;;;;5034900;28;20174;-77
2022/12/11 14:00:39;;;;;;;35.13;15.60;;;;;;;;;;5034732;28;20197;-77
2022/12/11 14:03:08;;;;;;;32.67;17.03;;;;;;;;;;5037510;28;20589;-77
2022/12/11 14:05:34;;;;;;;29.33;15.27;;;;;;;;;;5036874;28;20182;-77
2022/12/11 14:08:03;;;;;;;33.40;18.50;;;;;;;;;;5035866;28;20194;-77
2022/12/11 14:10:30;;;;;;;34.13;15.40;;;;;;;;;;5032587;28;20244;-77
2022/12/11 14:12:58;;;;;;;33.43;15.23;;;;;;;;;;5029847;28;20330;-77
2022/12/11 14:15:24;;;;;;;33.77;16.90;;;;;;;;;;5034751;28;20219;-77
2022/12/11 14:17:49;;;;;;;32.63;17.23;;;;;;;;;;5033432;28;20174;-77
2022/12/11 14:20:26;;;;;;;35.77;16.90;;;;;;;;;;5035414;28;20183;-78
2022/12/11 14:23:02;;;;;;;28.93;15.53;;;;;;;;;;5029868;28;20190;-77
2022/12/11 14:25:27;;;;;;;32.20;17.30;;;;;;;;;;5034345;28;20182;-77
2022/12/11 14:27:54;;;;;;;32.87;16.07;;;;;;;;;;5034687;28;20748;-77
2022/12/11 14:30:20;;;;;;;32.90;17.17;;;;;;;;;;5034003;28;20209;-77
2022/12/11 14:32:46;;;;;;;30.73;16.67;;;;;;;;;;5024746;28;20257;-77